Time;durP1;ratioP1;P1;durP2;ratioP2;P2;SDS_P1;SDS_P2;PMS_P1;PMS_P2;Temp;Humidity;BMP_temperature;BMP_pressure;BME280_temperature;BME280_humidity;BME280_pressure;Samples;Min_cycle;Max_cycle;Signal;HPM_P1;HPM_P2
2021/08/18 00:02:10;;;;;;;;;;;12.20;99.90;;;;;;5111277;28;20022;-72
2021/08/18 00:04:42;;;;;;;;;;;12.30;99.90;;;;;;5112784;28;19961;-71
2021/08/18 00:07:13;;;;;;;;;;;12.30;99.90;;;;;;5111316;28;20018;-72
2021/08/18 00:09:40;;;;;;;;;;;12.40;99.90;;;;;;5112454;28;20432;-72
2021/08/18 00:12:07;;;;;;;;;;;12.30;99.90;;;;;;5094338;28;20556;-72
2021/08/18 00:14:33;;;;;;;;;;;12.30;99.90;;;;;;5111371;28;19973;-72
2021/08/18 00:17:05;;;;;;;;;;;12.30;99.90;;;;;;5095113;28;19928;-72
2021/08/18 00:19:37;;;;;;;;;;;12.30;99.90;;;;;;5094921;28;20275;-72
2021/08/18 00:22:09;;;;;;;;;;;12.30;99.90;;;;;;5112271;28;20001;-72
2021/08/18 00:24:35;;;;;;;;;;;12.30;99.90;;;;;;5110986;28;19966;-72
2021/08/18 00:27:07;;;;;;;;;;;12.20;99.90;;;;;;5094977;28;20026;-72
2021/08/18 00:29:33;;;;;;;;;;;12.20;99.90;;;;;;5111134;28;20018;-71
2021/08/18 00:32:00;;;;;;;;;;;12.20;99.90;;;;;;5110775;28;19934;-72
2021/08/18 00:34:32;;;;;;;;;;;12.20;99.90;;;;;;5112366;28;19923;-72
2021/08/18 00:37:04;;;;;;;;;;;12.20;99.90;;;;;;5111091;28;19924;-72
2021/08/18 00:39:30;;;;;;;;;;;12.20;99.90;;;;;;5112137;28;19971;-72
2021/08/18 00:42:02;;;;;;;;;;;12.20;99.90;;;;;;5110867;28;19924;-72
2021/08/18 00:44:35;;;;;;;;;;;12.20;99.90;;;;;;5112252;28;19927;-72
2021/08/18 00:47:03;;;;;;;;;;;12.20;99.90;;;;;;5111207;28;20007;-72
2021/08/18 00:49:35;;;;;;;;;;;12.20;99.90;;;;;;5112403;28;19946;-72
2021/08/18 00:52:07;;;;;;;;;;;12.20;99.90;;;;;;5111889;28;20018;-72
2021/08/18 00:54:38;;;;;;;;;;;12.20;99.90;;;;;;5112197;28;19930;-73
2021/08/18 00:57:10;;;;;;;;;;;12.10;99.90;;;;;;5112451;28;19963;-71
2021/08/18 00:59:41;;;;;;;;;;;12.10;99.90;;;;;;5111822;28;19930;-72
2021/08/18 01:02:13;;;;;;;;;;;12.10;99.90;;;;;;5110219;28;19932;-72
2021/08/18 01:04:46;;;;;;;;;;;12.20;99.90;;;;;;5115411;28;19924;-73
2021/08/18 01:07:13;;;;;;;;;;;12.10;99.90;;;;;;5114083;28;20135;-73
2021/08/18 01:09:40;;;;;;;;;;;12.20;99.90;;;;;;5096701;28;20386;-72
2021/08/18 01:12:13;;;;;;;;;;;12.10;99.90;;;;;;5113932;28;19945;-73
2021/08/18 01:14:39;;;;;;;;;;;12.20;99.90;;;;;;5115291;28;20457;-72
2021/08/18 01:17:11;;;;;;;;;;;12.20;99.90;;;;;;5114061;28;19934;-71
2021/08/18 01:19:43;;;;;;;;;;;12.10;99.90;;;;;;5115004;28;20032;-72
2021/08/18 01:22:09;;;;;;;;;;;12.10;99.90;;;;;;5113581;27;19924;-72
2021/08/18 01:24:41;;;;;;;;;;;12.10;99.90;;;;;;5113928;28;19924;-72
2021/08/18 01:27:08;;;;;;;;;;;12.10;99.90;;;;;;5113932;28;19930;-72
2021/08/18 01:29:39;;;;;;;;;;;12.20;99.90;;;;;;5097664;28;19924;-72
2021/08/18 01:32:11;;;;;;;;;;;12.20;99.90;;;;;;5114898;28;19924;-72
2021/08/18 01:34:43;;;;;;;;;;;12.10;99.90;;;;;;5098016;28;19924;-71
2021/08/18 01:37:09;;;;;;;;;;;12.20;99.90;;;;;;5114065;28;20340;-72
2021/08/18 01:39:36;;;;;;;;;;;12.20;99.90;;;;;;5114166;28;19930;-72
2021/08/18 01:42:03;;;;;;;;;;;12.20;99.90;;;;;;5113488;28;19924;-72
2021/08/18 01:44:35;;;;;;;;;;;12.20;99.90;;;;;;5113385;28;19930;-72
2021/08/18 01:47:06;;;;;;;;;;;12.10;99.90;;;;;;5097316;28;19927;-72
2021/08/18 01:49:33;;;;;;;;;;;12.20;99.90;;;;;;5113233;28;19924;-72
2021/08/18 01:52:05;;;;;;;;;;;12.20;99.90;;;;;;5096885;28;19924;-72
2021/08/18 01:54:36;;;;;;;;;;;12.10;99.90;;;;;;5097586;28;19930;-72
2021/08/18 01:57:03;;;;;;;;;;;12.20;99.90;;;;;;5113701;28;19923;-72
2021/08/18 01:59:35;;;;;;;;;;;12.20;99.90;;;;;;5097626;28;19930;-72
2021/08/18 02:02:02;;;;;;;;;;;12.20;99.90;;;;;;5113254;28;20432;-72
2021/08/18 02:04:36;;;;;;;;;;;12.20;99.90;;;;;;5113543;28;20404;-72
2021/08/18 02:07:03;;;;;;;;;;;12.20;99.90;;;;;;5114715;28;19923;-72
2021/08/18 02:09:35;;;;;;;;;;;12.20;99.90;;;;;;5113556;28;19930;-72
2021/08/18 02:12:07;;;;;;;;;;;12.30;99.90;;;;;;5113344;28;19924;-72
2021/08/18 02:14:39;;;;;;;;;;;12.30;99.90;;;;;;5113165;28;20014;-71
2021/08/18 02:17:06;;;;;;;;;;;12.30;99.90;;;;;;5096493;28;19973;-72
2021/08/18 02:19:38;;;;;;;;;;;12.30;99.90;;;;;;5113257;28;20279;-72
2021/08/18 02:22:10;;;;;;;;;;;12.30;99.90;;;;;;5112874;28;19930;-71
2021/08/18 02:24:36;;;;;;;;;;;12.30;99.90;;;;;;5113298;28;20389;-72
2021/08/18 02:27:03;;;;;;;;;;;12.30;99.90;;;;;;5114571;28;19924;-71
2021/08/18 02:29:35;;;;;;;;;;;12.30;99.90;;;;;;5113169;28;19924;-72
2021/08/18 02:32:02;;;;;;;;;;;12.20;99.90;;;;;;5114138;28;19934;-72
2021/08/18 02:34:33;;;;;;;;;;;12.30;99.90;;;;;;5113137;28;19932;-71
2021/08/18 02:37:00;;;;;;;;;;;12.30;99.90;;;;;;5113023;28;19924;-71
2021/08/18 02:39:32;;;;;;;;;;;12.30;99.90;;;;;;5114198;28;19932;-72
2021/08/18 02:42:03;;;;;;;;;;;12.30;99.90;;;;;;5112816;28;19934;-73
2021/08/18 02:44:35;;;;;;;;;;;12.30;99.90;;;;;;5096712;28;19923;-72
2021/08/18 02:47:07;;;;;;;;;;;12.30;99.90;;;;;;5112807;28;20295;-72
2021/08/18 02:49:38;;;;;;;;;;;12.30;99.90;;;;;;5112829;28;19923;-72
2021/08/18 02:52:10;;;;;;;;;;;12.40;99.90;;;;;;5112620;28;19934;-72
2021/08/18 02:54:42;;;;;;;;;;;12.40;99.90;;;;;;5113952;28;20012;-71
2021/08/18 02:57:13;;;;;;;;;;;12.40;99.90;;;;;;5112766;28;19930;-72
2021/08/18 02:59:40;;;;;;;;;;;12.40;99.90;;;;;;5112507;28;19927;-72
2021/08/18 03:02:07;;;;;;;;;;;12.40;99.90;;;;;;5113723;28;20338;-73
2021/08/18 03:04:38;;;;;;;;;;;12.40;99.90;;;;;;5112439;28;19924;-72
2021/08/18 03:07:05;;;;;;;;;;;12.40;99.90;;;;;;5113556;28;20014;-73
2021/08/18 03:09:31;;;;;;;;;;;12.50;99.90;;;;;;5112343;28;19924;-72
2021/08/18 03:11:58;;;;;;;;;;;12.50;99.90;;;;;;5111953;28;19923;-72
2021/08/18 03:14:30;;;;;;;;;;;12.50;99.90;;;;;;5113608;27;19928;-72
2021/08/18 03:16:56;;;;;;;;;;;12.50;99.90;;;;;;5112193;28;20018;-72
2021/08/18 03:19:28;;;;;;;;;;;12.60;99.90;;;;;;5113259;28;19924;-73
2021/08/18 03:21:55;;;;;;;;;;;12.60;99.90;;;;;;5111776;28;19946;-71
2021/08/18 03:24:21;;;;;;;;;;;12.60;99.90;;;;;;5112022;28;19923;-72
2021/08/18 03:26:53;;;;;;;;;;;12.60;99.90;;;;;;5112515;28;19923;-72
2021/08/18 03:29:25;;;;;;;;;;;12.70;99.90;;;;;;5112120;28;19931;-72
2021/08/18 03:31:56;;;;;;;;;;;12.60;99.90;;;;;;5095499;28;20388;-72
2021/08/18 03:34:28;;;;;;;;;;;12.60;99.90;;;;;;5095729;28;19930;-72
2021/08/18 03:36:59;;;;;;;;;;;12.60;99.90;;;;;;5111812;28;19924;-72
2021/08/18 03:39:31;;;;;;;;;;;12.60;99.90;;;;;;5095563;28;19924;-72
2021/08/18 03:42:03;;;;;;;;;;;12.60;99.90;;;;;;5111685;28;20327;-72
2021/08/18 03:44:29;;;;;;;;;;;12.60;99.90;;;;;;5111671;28;20010;-72
2021/08/18 03:47:01;;;;;;;;;;;12.70;99.90;;;;;;5111639;28;19924;-72
2021/08/18 03:49:33;;;;;;;;;;;12.70;99.90;;;;;;5111458;28;19923;-72
2021/08/18 03:52:06;;;;;;;;;;;12.70;99.90;;;;;;5110924;28;19928;-72
2021/08/18 03:54:38;;;;;;;;;;;12.70;99.90;;;;;;5094817;28;20416;-72
2021/08/18 03:57:04;;;;;;;;;;;12.70;99.90;;;;;;5110976;28;19930;-72
2021/08/18 03:59:36;;;;;;;;;;;12.80;99.90;;;;;;5111069;28;20382;-72
2021/08/18 04:02:03;;;;;;;;;;;12.80;99.90;;;;;;5110459;28;19930;-72
2021/08/18 04:04:34;;;;;;;;;;;12.80;99.90;;;;;;5112052;28;19994;-71
2021/08/18 04:07:01;;;;;;;;;;;12.80;99.90;;;;;;5112032;28;19928;-72
2021/08/18 04:09:28;;;;;;;;;;;12.80;99.90;;;;;;5111940;28;20018;-72
2021/08/18 04:11:59;;;;;;;;;;;12.80;99.90;;;;;;5094274;28;20279;-72
2021/08/18 04:14:26;;;;;;;;;;;12.90;99.90;;;;;;5110727;28;19931;-72
2021/08/18 04:16:53;;;;;;;;;;;12.90;99.90;;;;;;5110695;28;19934;-72
2021/08/18 04:19:19;;;;;;;;;;;12.90;99.90;;;;;;5111681;28;19923;-72
2021/08/18 04:21:51;;;;;;;;;;;13.00;99.90;;;;;;5110390;28;20305;-72
2021/08/18 04:24:17;;;;;;;;;;;13.10;99.90;;;;;;5111844;28;19931;-72
2021/08/18 04:26:44;;;;;;;;;;;13.00;99.90;;;;;;5093658;28;19924;-71
2021/08/18 04:29:16;;;;;;;;;;;13.10;99.90;;;;;;5110405;28;19930;-72
2021/08/18 04:31:47;;;;;;;;;;;13.10;99.90;;;;;;5110773;28;19923;-71
2021/08/18 04:34:14;;;;;;;;;;;13.10;99.90;;;;;;5111783;28;19934;-72
2021/08/18 04:36:40;;;;;;;;;;;13.10;99.90;;;;;;5111632;28;20010;-71
2021/08/18 04:39:07;;;;;;;;;;;13.10;99.90;;;;;;5116487;28;19930;-72
2021/08/18 04:41:34;;;;;;;;;;;13.10;99.90;;;;;;5115030;28;19931;-73
2021/08/18 04:44:01;;;;;;;;;;;13.10;99.90;;;;;;5116705;28;19934;-72
2021/08/18 04:46:27;;;;;;;;;;;13.10;99.90;;;;;;5115121;28;19924;-72
2021/08/18 04:48:59;;;;;;;;;;;13.10;99.90;;;;;;5116310;28;19930;-72
2021/08/18 04:51:26;;;;;;;;;;;13.10;99.90;;;;;;5114826;28;19924;-72
2021/08/18 04:53:58;;;;;;;;;;;13.10;99.90;;;;;;5098959;28;19930;-72
2021/08/18 04:56:29;;;;;;;;;;;13.10;99.90;;;;;;5115188;28;19930;-72
2021/08/18 04:58:56;;;;;;;;;;;13.00;99.90;;;;;;5115041;28;19923;-72
2021/08/18 05:01:28;;;;;;;;;;;13.00;99.90;;;;;;5114911;28;19924;-72
2021/08/18 05:03:54;;;;;;;;;;;13.00;99.90;;;;;;5116515;28;20285;-71
2021/08/18 05:06:26;;;;;;;;;;;13.00;99.90;;;;;;5116096;28;19924;-72
2021/08/18 05:08:57;;;;;;;;;;;13.00;99.90;;;;;;5115912;28;19923;-72
2021/08/18 05:11:24;;;;;;;;;;;13.00;99.90;;;;;;5114398;28;20023;-72
2021/08/18 05:13:51;;;;;;;;;;;13.00;99.90;;;;;;5115994;28;19935;-72
2021/08/18 05:16:17;;;;;;;;;;;13.10;99.90;;;;;;5115934;27;19994;-72
2021/08/18 05:18:49;;;;;;;;;;;13.10;99.90;;;;;;5114400;28;20366;-72
2021/08/18 05:21:21;;;;;;;;;;;13.10;99.90;;;;;;5114095;28;19924;-72
2021/08/18 05:23:47;;;;;;;;;;;13.10;99.90;;;;;;5114572;28;19923;-72
2021/08/18 05:26:19;;;;;;;;;;;13.10;99.90;;;;;;5114560;28;19927;-72
2021/08/18 05:28:45;;;;;;;;;;;13.20;99.90;;;;;;5114440;28;19930;-72
2021/08/18 05:31:17;;;;;;;;;;;13.20;99.90;;;;;;5115266;28;19945;-72
2021/08/18 05:33:49;;;;;;;;;;;13.30;99.90;;;;;;5115393;28;19930;-73
2021/08/18 05:36:16;;;;;;;;;;;13.30;99.90;;;;;;5114229;28;20382;-71
2021/08/18 05:38:43;;;;;;;;;;;13.30;99.90;;;;;;5114157;28;19927;-72
2021/08/18 05:41:14;;;;;;;;;;;13.30;99.90;;;;;;5113828;27;19924;-71
2021/08/18 05:43:41;;;;;;;;;;;13.40;99.90;;;;;;5114146;28;19927;-71
2021/08/18 05:46:13;;;;;;;;;;;13.40;99.90;;;;;;5115126;28;19924;-72
2021/08/18 05:48:44;;;;;;;;;;;13.50;99.90;;;;;;5114491;28;20295;-72
2021/08/18 05:51:16;;;;;;;;;;;13.50;99.90;;;;;;5114826;28;19923;-73
2021/08/18 05:53:50;;;;;;;;;;;13.50;99.90;;;;;;5097743;28;19925;-72
2021/08/18 05:56:17;;;;;;;;;;;13.60;99.90;;;;;;5096960;28;19924;-73
2021/08/18 05:58:49;;;;;;;;;;;13.50;99.90;;;;;;5113646;28;19930;-73
2021/08/18 06:01:20;;;;;;;;;;;13.50;99.90;;;;;;5113553;28;20026;-71
2021/08/18 06:03:52;;;;;;;;;;;13.50;99.90;;;;;;5113729;28;19923;-72
2021/08/18 06:06:23;;;;;;;;;;;13.60;99.90;;;;;;5113796;28;19935;-72
2021/08/18 06:08:50;;;;;;;;;;;13.60;99.90;;;;;;5096701;28;20034;-71
2021/08/18 06:11:22;;;;;;;;;;;13.60;99.90;;;;;;5113284;28;19934;-71
2021/08/18 06:13:49;;;;;;;;;;;13.70;99.90;;;;;;5113601;28;19924;-71
2021/08/18 06:16:15;;;;;;;;;;;13.70;99.90;;;;;;5114648;28;19923;-72
2021/08/18 06:18:47;;;;;;;;;;;13.70;99.90;;;;;;5113600;28;19923;-72
2021/08/18 06:21:19;;;;;;;;;;;13.70;99.90;;;;;;5096956;28;19924;-72
2021/08/18 06:23:47;;;;;;;;;;;13.80;99.90;;;;;;5113197;28;20099;-71
2021/08/18 06:26:14;;;;;;;;;;;13.80;99.90;;;;;;5113115;28;19923;-72
2021/08/18 06:28:40;;;;;;;;;;;13.90;99.90;;;;;;5096285;28;20032;-73
2021/08/18 06:31:12;;;;;;;;;;;13.90;99.90;;;;;;5114057;28;19934;-72
2021/08/18 06:33:39;;;;;;;;;;;14.00;99.90;;;;;;5096225;28;19930;-73
2021/08/18 06:36:10;;;;;;;;;;;14.00;99.90;;;;;;5113016;28;19924;-72
2021/08/18 06:38:42;;;;;;;;;;;14.00;99.90;;;;;;5096826;28;19924;-72
2021/08/18 06:41:08;;;;;;;;;;;14.10;99.90;;;;;;5112680;28;19930;-71
2021/08/18 06:43:40;;;;;;;;;;;14.10;99.90;;;;;;5096722;28;20285;-71
2021/08/18 06:46:07;;;;;;;;;;;14.20;99.90;;;;;;5112762;28;20497;-72
2021/08/18 06:48:38;;;;;;;;;;;14.20;99.90;;;;;;5112717;28;20293;-71
2021/08/18 06:51:10;;;;;;;;;;;14.30;99.90;;;;;;5112452;28;19930;-72
2021/08/18 06:53:37;;;;;;;;;;;14.30;99.90;;;;;;5112761;28;19924;-72
2021/08/18 06:56:03;;;;;;;;;;;14.30;99.90;;;;;;5095733;28;20293;-71
2021/08/18 06:58:37;;;;;;;;;;;14.30;99.90;;;;;;5113953;28;20018;-72
2021/08/18 07:01:08;;;;;;;;;;;14.40;99.90;;;;;;5094895;28;19923;-74
2021/08/18 07:03:40;;;;;;;;;;;14.40;99.90;;;;;;5096356;28;20374;-71
2021/08/18 07:06:12;;;;;;;;;;;14.40;99.90;;;;;;5112531;28;19943;-72
2021/08/18 07:08:38;;;;;;;;;;;14.50;99.90;;;;;;5112485;28;19924;-71
2021/08/18 07:11:05;;;;;;;;;;;14.60;99.90;;;;;;5111828;28;19930;-74
2021/08/18 07:13:38;;;;;;;;;;;14.60;99.90;;;;;;5112390;28;19923;-72
2021/08/18 07:16:05;;;;;;;;;;;14.60;99.90;;;;;;5113571;28;20022;-72
2021/08/18 07:18:37;;;;;;;;;;;14.70;99.90;;;;;;5096070;28;19928;-72
2021/08/18 07:21:04;;;;;;;;;;;14.70;99.90;;;;;;5111793;28;20022;-71
2021/08/18 07:23:35;;;;;;;;;;;14.80;99.90;;;;;;5113413;28;20030;-72
2021/08/18 07:26:07;;;;;;;;;;;14.90;99.90;;;;;;5113344;28;19923;-71
2021/08/18 07:28:38;;;;;;;;;;;14.90;99.90;;;;;;5111913;28;19924;-72
2021/08/18 07:31:05;;;;;;;;;;;15.00;99.90;;;;;;5111803;28;20455;-72
2021/08/18 07:33:37;;;;;;;;;;;15.00;99.90;;;;;;5111937;28;20018;-72
2021/08/18 07:36:03;;;;;;;;;;;15.00;99.90;;;;;;5112021;28;20010;-72
2021/08/18 07:38:35;;;;;;;;;;;15.10;99.90;;;;;;5111840;28;20022;-72
2021/08/18 07:41:02;;;;;;;;;;;15.10;99.90;;;;;;5111781;28;20395;-73
2021/08/18 07:43:29;;;;;;;;;;;15.20;99.90;;;;;;5111623;28;19924;-72
2021/08/18 07:46:00;;;;;;;;;;;15.30;99.90;;;;;;5111666;28;19968;-72
2021/08/18 07:48:29;;;;;;;;;;;15.30;99.90;;;;;;5111559;28;19924;-71
2021/08/18 07:51:10;;;;;;;;;;;15.30;99.90;;;;;;5111388;28;20002;-72
2021/08/18 07:53:42;;;;;;;;;;;15.40;99.90;;;;;;5111573;28;19928;-72
2021/08/18 07:56:14;;;;;;;;;;;15.50;99.90;;;;;;5111621;28;20386;-71
2021/08/18 07:58:40;;;;;;;;;;;15.70;99.90;;;;;;5111564;28;19946;-71
2021/08/18 08:01:07;;;;;;;;;;;15.90;99.90;;;;;;5094410;28;19959;-71
2021/08/18 08:03:39;;;;;;;;;;;16.10;99.90;;;;;;5095497;28;19959;-71
2021/08/18 08:06:11;;;;;;;;;;;16.10;99.90;;;;;;5112647;28;20320;-72
2021/08/18 08:08:42;;;;;;;;;;;16.20;99.90;;;;;;5111593;28;19930;-71
2021/08/18 08:11:14;;;;;;;;;;;16.20;99.90;;;;;;5110763;28;20019;-71
2021/08/18 08:13:46;;;;;;;;;;;16.10;99.90;;;;;;5111196;28;20027;-72
2021/08/18 08:16:17;;;;;;;;;;;16.10;99.90;;;;;;5112560;28;19930;-73
2021/08/18 08:18:49;;;;;;;;;;;16.10;99.90;;;;;;5112469;28;20374;-71
2021/08/18 08:21:21;;;;;;;;;;;16.10;99.90;;;;;;5112170;28;19959;-72
2021/08/18 08:23:54;;;;;;;;;;;16.30;99.90;;;;;;5110666;28;20311;-71
2021/08/18 08:26:26;;;;;;;;;;;16.40;99.90;;;;;;5095298;28;19924;-71
2021/08/18 08:28:57;;;;;;;;;;;16.40;99.90;;;;;;5111545;28;19923;-71
2021/08/18 08:31:24;;;;;;;;;;;16.60;99.90;;;;;;5111298;28;19924;-71
2021/08/18 08:33:56;;;;;;;;;;;16.70;99.90;;;;;;5095111;28;19931;-71
2021/08/18 08:36:27;;;;;;;;;;;16.70;99.90;;;;;;5112343;28;20018;-72
2021/08/18 08:38:59;;;;;;;;;;;16.70;99.90;;;;;;5094826;28;19923;-72
2021/08/18 08:41:34;;;;;;;;;;;16.70;99.90;;;;;;5110844;28;20019;-72
2021/08/18 08:44:01;;;;;;;;;;;16.70;99.90;;;;;;5110877;28;19924;-71
2021/08/18 08:46:33;;;;;;;;;;;16.70;99.90;;;;;;5111190;28;19953;-71
2021/08/18 08:48:59;;;;;;;;;;;16.80;99.90;;;;;;5110943;28;19965;-73
2021/08/18 08:51:31;;;;;;;;;;;16.80;99.90;;;;;;5110824;28;20018;-71
2021/08/18 08:54:03;;;;;;;;;;;16.90;99.90;;;;;;5110926;28;19927;-72
2021/08/18 08:56:30;;;;;;;;;;;17.00;99.90;;;;;;5110813;28;19959;-72
2021/08/18 08:58:56;;;;;;;;;;;17.20;99.90;;;;;;5111165;28;19958;-72
2021/08/18 09:01:48;;;;;;;;;;;17.30;99.90;;;;;;5110838;28;20302;-71
2021/08/18 09:04:31;;;;;;;;;;;17.40;99.90;;;;;;5110777;28;19930;-73
2021/08/18 09:07:13;;;;;;;;;;;17.30;99.90;;;;;;5094582;28;19966;-71
2021/08/18 09:09:41;;;;;;;;;;;17.20;99.90;;;;;;5110826;28;19924;-71
2021/08/18 09:12:15;;;;;;;;;;;17.30;99.90;;;;;;5094392;28;20359;-71
2021/08/18 09:14:46;;;;;;;;;;;17.50;99.90;;;;;;5110806;28;19930;-71
2021/08/18 09:17:49;;;;;;;;;;;17.50;99.90;;;;;;5111821;28;20371;-71
2021/08/18 09:20:17;;;;;;;;;;;17.30;99.90;;;;;;5035984;28;19931;-73
2021/08/18 09:22:54;;;;;;;;;;;17.20;99.90;;;;;;5100779;28;20453;-71
2021/08/18 09:25:27;;;;;;;;;;;17.20;99.90;;;;;;5115382;28;20015;-72
2021/08/18 09:28:01;;;;;;;;;;;17.30;99.90;;;;;;5098082;28;19930;-71
2021/08/18 09:30:34;;;;;;;;;;;17.50;99.90;;;;;;5114379;28;19928;-71
2021/08/18 09:33:15;;;;;;;;;;;17.50;99.90;;;;;;5114233;28;20010;-71
2021/08/18 09:35:55;;;;;;;;;;;17.50;99.90;;;;;;5114175;28;20390;-71
2021/08/18 09:38:25;;;;;;;;;;;17.30;99.90;;;;;;5114174;28;20348;-71
2021/08/18 09:40:56;;;;;;;;;;;17.40;99.90;;;;;;5115383;28;20390;-71
2021/08/18 09:43:25;;;;;;;;;;;17.50;99.90;;;;;;5115558;27;20293;-72
2021/08/18 09:46:01;;;;;;;;;;;17.70;99.90;;;;;;5114036;28;19930;-71
2021/08/18 09:48:28;;;;;;;;;;;17.70;99.90;;;;;;5113947;28;19947;-71
2021/08/18 09:50:58;;;;;;;;;;;17.70;99.90;;;;;;5114007;28;20363;-71
2021/08/18 09:53:26;;;;;;;;;;;17.70;99.90;;;;;;5113977;28;19924;-71
2021/08/18 09:55:59;;;;;;;;;;;17.80;99.90;;;;;;5114087;28;20401;-73
2021/08/18 09:58:32;;;;;;;;;;;17.80;99.90;;;;;;5113839;28;19927;-71
2021/08/18 10:01:08;;;;;;;;;;;17.80;99.90;;;;;;5097309;28;19930;-70
2021/08/18 10:03:42;;;;;;;;;;;17.80;99.90;;;;;;5113906;28;19924;-71
2021/08/18 10:06:15;;;;;;;;;;;17.80;99.90;;;;;;5113671;28;19971;-71
2021/08/18 10:08:51;;;;;;;;;;;17.70;99.90;;;;;;5097432;28;19928;-72
2021/08/18 10:11:17;;;;;;;;;;;17.60;99.90;;;;;;5113259;28;20015;-72
2021/08/18 10:13:50;;;;;;;;;;;17.70;99.90;;;;;;5113625;28;20010;-72
2021/08/18 10:16:22;;;;;;;;;;;17.60;99.90;;;;;;5114784;28;20026;-72
2021/08/18 10:18:55;;;;;;;;;;;17.50;99.90;;;;;;5113449;28;19934;-73
2021/08/18 10:21:28;;;;;;;;;;;17.60;99.90;;;;;;5114423;28;19923;-71
2021/08/18 10:24:01;;;;;;;;;;;17.60;99.90;;;;;;5113280;28;19934;-73
2021/08/18 10:26:34;;;;;;;;;;;17.60;99.90;;;;;;5114457;28;19930;-72
2021/08/18 10:29:05;;;;;;;;;;;17.60;99.90;;;;;;5113186;28;20469;-71
2021/08/18 10:31:46;;;;;;;;;;;17.60;99.90;;;;;;5114173;28;19930;-72
2021/08/18 10:34:22;;;;;;;;;;;17.50;99.90;;;;;;5112952;28;19959;-71
2021/08/18 10:36:56;;;;;;;;;;;17.50;99.90;;;;;;5113206;28;19930;-71
2021/08/18 10:39:36;;;;;;;;;;;17.40;99.90;;;;;;5113173;28;20508;-72
2021/08/18 10:42:14;;;;;;;;;;;17.40;99.90;;;;;;5113951;28;19923;-71
2021/08/18 10:44:50;;;;;;;;;;;17.50;99.90;;;;;;5112916;28;20014;-71
2021/08/18 10:47:23;;;;;;;;;;;17.60;99.90;;;;;;5112857;28;19965;-71
2021/08/18 10:49:59;;;;;;;;;;;17.60;99.90;;;;;;5114204;28;20019;-71
2021/08/18 10:52:28;;;;;;;;;;;17.60;99.90;;;;;;5112616;28;19924;-71
2021/08/18 10:55:13;;;;;;;;;;;17.80;99.90;;;;;;5112667;28;19923;-72
2021/08/18 10:58:05;;;;;;;;;;;17.90;99.90;;;;;;5113976;28;19924;-72
2021/08/18 11:00:37;;;;;;;;;;;18.00;99.90;;;;;;5112620;28;19924;-71
2021/08/18 11:03:12;;;;;;;;;;;18.20;99.90;;;;;;5113627;28;19923;-71
2021/08/18 11:05:38;;;;;;;;;;;18.30;99.90;;;;;;5095549;28;20018;-72
2021/08/18 11:08:20;;;;;;;;;;;18.40;99.90;;;;;;5096266;28;20346;-71
2021/08/18 11:10:55;;;;;;;;;;;18.40;99.90;;;;;;5113591;28;19930;-71
2021/08/18 11:13:34;;;;;;;;;;;18.40;99.90;;;;;;5112199;28;20019;-71
2021/08/18 11:16:06;;;;;;;;;;;18.40;99.90;;;;;;5096105;28;19930;-72
2021/08/18 11:18:45;;;;;;;;;;;18.30;99.90;;;;;;5112509;28;19924;-71
2021/08/18 11:21:37;;;;;;;;;;;18.20;99.90;;;;;;5111975;28;19957;-71
2021/08/18 11:24:13;;;;;;;;;;;18.20;99.90;;;;;;5095959;28;20044;-72
2021/08/18 11:26:45;;;;;;;;;;;18.20;99.90;;;;;;5095888;28;19930;-72
2021/08/18 11:29:19;;;;;;;;;;;18.20;99.90;;;;;;5113343;28;19924;-71
2021/08/18 11:31:53;;;;;;;;;;;18.20;99.90;;;;;;5111912;28;19930;-71
2021/08/18 11:34:26;;;;;;;;;;;18.10;99.90;;;;;;5113265;28;20014;-72
2021/08/18 11:37:02;;;;;;;;;;;18.00;99.90;;;;;;5113167;28;20023;-72
2021/08/18 11:39:36;;;;;;;;;;;18.00;99.90;;;;;;5095702;28;19928;-71
2021/08/18 11:42:12;;;;;;;;;;;18.00;99.90;;;;;;5111709;28;20405;-71
2021/08/18 11:44:45;;;;;;;;;;;18.00;99.90;;;;;;5095780;28;19928;-71
2021/08/18 11:47:18;;;;;;;;;;;18.00;99.90;;;;;;5111141;28;20007;-71
2021/08/18 11:49:49;;;;;;;;;;;18.10;99.90;;;;;;5113049;28;19923;-72
2021/08/18 11:52:22;;;;;;;;;;;18.20;99.90;;;;;;5112717;28;19971;-71
2021/08/18 11:54:58;;;;;;;;;;;18.20;99.90;;;;;;5111737;28;19934;-73
2021/08/18 11:57:29;;;;;;;;;;;18.30;99.90;;;;;;5111866;28;20301;-71
2021/08/18 12:00:05;;;;;;;;;;;18.30;99.90;;;;;;5112894;28;19924;-71
2021/08/18 12:02:38;;;;;;;;;;;18.30;99.90;;;;;;5111224;28;19923;-71
2021/08/18 12:05:10;;;;;;;;;;;18.30;99.90;;;;;;5095420;28;19923;-72
2021/08/18 12:07:42;;;;;;;;;;;18.40;99.90;;;;;;5112572;28;20416;-71
2021/08/18 12:10:16;;;;;;;;;;;18.40;99.90;;;;;;5111687;28;20316;-72
2021/08/18 12:13:06;;;;;;;;;;;18.60;99.90;;;;;;5112332;28;19946;-72
2021/08/18 12:15:44;;;;;;;;;;;18.70;99.90;;;;;;5111551;28;19924;-71
2021/08/18 12:18:28;;;;;;;;;;;18.80;99.90;;;;;;5111167;28;20010;-71
2021/08/18 12:21:14;;;;;;;;;;;18.80;99.90;;;;;;5111140;28;20390;-71
2021/08/18 12:23:43;;;;;;;;;;;18.80;99.90;;;;;;5112438;28;20022;-72
2021/08/18 12:26:28;;;;;;;;;;;18.70;99.90;;;;;;5111481;28;19934;-71
2021/08/18 12:29:01;;;;;;;;;;;18.70;99.90;;;;;;5094996;28;20006;-71
2021/08/18 12:31:56;;;;;;;;;;;18.70;99.90;;;;;;5112215;28;19923;-72
2021/08/18 12:34:32;;;;;;;;;;;18.60;99.90;;;;;;5111176;28;19946;-73
2021/08/18 12:37:02;;;;;;;;;;;18.60;99.90;;;;;;5094230;28;19930;-71
2021/08/18 12:39:35;;;;;;;;;;;18.60;99.90;;;;;;5094889;28;20328;-71
2021/08/18 12:42:02;;;;;;;;;;;18.60;99.90;;;;;;5093961;28;19927;-72
2021/08/18 12:44:34;;;;;;;;;;;18.60;99.90;;;;;;5111140;28;20451;-72
2021/08/18 12:47:10;;;;;;;;;;;18.70;99.90;;;;;;5110967;28;20278;-72
2021/08/18 12:49:49;;;;;;;;;;;18.70;99.90;;;;;;5094766;28;20396;-73
2021/08/18 12:52:20;;;;;;;;;;;18.90;99.90;;;;;;5110821;28;19930;-72
2021/08/18 12:54:52;;;;;;;;;;;19.20;99.90;;;;;;5112381;28;19930;-72
2021/08/18 12:57:23;;;;;;;;;;;19.40;99.90;;;;;;5112665;28;20018;-72
2021/08/18 12:59:56;;;;;;;;;;;19.60;99.90;;;;;;5114854;28;19924;-72
2021/08/18 13:02:28;;;;;;;;;;;19.70;99.90;;;;;;5114913;28;20360;-73
2021/08/18 13:04:55;;;;;;;;;;;19.50;99.90;;;;;;5098256;28;20353;-72
2021/08/18 13:07:26;;;;;;;;;;;19.50;99.90;;;;;;5098573;28;19931;-73
2021/08/18 13:09:58;;;;;;;;;;;19.30;99.90;;;;;;5098640;28;19931;-72
2021/08/18 13:12:30;;;;;;;;;;;19.20;99.90;;;;;;5114338;28;19924;-72
2021/08/18 13:14:56;;;;;;;;;;;19.30;99.90;;;;;;5116041;28;20401;-71
2021/08/18 13:17:24;;;;;;;;;;;19.20;99.90;;;;;;5097679;28;20018;-72
2021/08/18 13:19:56;;;;;;;;;;;19.30;99.90;;;;;;5115771;28;19931;-72
2021/08/18 13:22:22;;;;;;;;;;;19.50;99.90;;;;;;5115503;28;20034;-72
2021/08/18 13:24:54;;;;;;;;;;;19.70;99.90;;;;;;5115785;28;20022;-72
2021/08/18 13:27:21;;;;;;;;;;;19.70;99.90;;;;;;5114332;28;20026;-72
2021/08/18 13:29:52;;;;;;;;;;;19.90;99.90;;;;;;5114521;28;20014;-72
2021/08/18 13:32:24;;;;;;;;;;;20.00;99.90;;;;;;5114356;28;19928;-72
2021/08/18 13:34:56;;;;;;;;;;;20.00;99.90;;;;;;5115742;28;20022;-71
2021/08/18 13:37:28;;;;;;;;;;;20.10;99.90;;;;;;5098028;28;20038;-72
2021/08/18 13:40:00;;;;;;;;;;;20.30;99.90;;;;;;5114360;28;19932;-71
2021/08/18 13:42:31;;;;;;;;;;;20.50;99.90;;;;;;5114133;28;20362;-72
2021/08/18 13:45:03;;;;;;;;;;;20.40;99.90;;;;;;5114142;28;20026;-72
2021/08/18 13:47:31;;;;;;;;;;;20.50;99.90;;;;;;5114110;28;20027;-71
2021/08/18 13:49:57;;;;;;;;;;;20.40;99.90;;;;;;5114132;28;19924;-72
2021/08/18 13:52:24;;;;;;;;;;;20.40;99.90;;;;;;5113763;28;20035;-71
2021/08/18 13:54:56;;;;;;;;;;;20.60;99.90;;;;;;5115311;28;20015;-73
2021/08/18 13:57:27;;;;;;;;;;;20.70;99.90;;;;;;5114120;28;19946;-72
2021/08/18 13:59:54;;;;;;;;;;;20.60;99.90;;;;;;5115236;28;19930;-73
2021/08/18 14:02:21;;;;;;;;;;;20.60;99.90;;;;;;5113495;28;19924;-72
2021/08/18 14:04:52;;;;;;;;;;;20.60;99.90;;;;;;5115027;28;20003;-72
2021/08/18 14:07:25;;;;;;;;;;;20.60;99.90;;;;;;5115077;28;19923;-71
2021/08/18 14:09:57;;;;;;;;;;;20.60;99.90;;;;;;5114369;28;19924;-72
2021/08/18 14:12:30;;;;;;;;;;;20.60;99.90;;;;;;5113438;28;20023;-72
2021/08/18 14:15:02;;;;;;;;;;;20.60;99.90;;;;;;5113496;28;19924;-72
2021/08/18 14:17:30;;;;;;;;;;;20.50;99.90;;;;;;5113594;28;19955;-72
2021/08/18 14:20:03;;;;;;;;;;;20.40;99.90;;;;;;5114731;28;19930;-71
2021/08/18 14:22:34;;;;;;;;;;;20.40;99.90;;;;;;5097164;28;20014;-72
2021/08/18 14:25:06;;;;;;;;;;;20.20;99.90;;;;;;5097196;28;20477;-72
2021/08/18 14:27:38;;;;;;;;;;;20.20;99.90;;;;;;5113247;28;19923;-72
2021/08/18 14:30:10;;;;;;;;;;;20.20;99.90;;;;;;5114648;28;19966;-71
2021/08/18 14:32:42;;;;;;;;;;;20.20;99.90;;;;;;5112998;28;20446;-71
2021/08/18 14:35:14;;;;;;;;;;;20.10;99.90;;;;;;5113373;28;20003;-71
2021/08/18 14:37:41;;;;;;;;;;;20.10;99.90;;;;;;5114441;28;20027;-71
2021/08/18 14:40:12;;;;;;;;;;;20.00;99.90;;;;;;5113078;28;19924;-72